createdAt,value
2022-11-20T00:00:37.238Z,38.88
2022-11-20T00:03:05.076Z,38.08
2022-11-20T00:05:34.169Z,39.97
2022-11-20T00:08:01.881Z,36.97
2022-11-20T00:12:57.095Z,40.65
2022-11-20T00:17:53.677Z,43.00
2022-11-20T00:20:21.421Z,39.75
2022-11-20T00:25:16.774Z,40.58
2022-11-20T00:30:15.012Z,44.70
2022-11-20T00:32:43.081Z,40.90
2022-11-20T00:37:39.692Z,39.70
2022-11-20T00:40:08.177Z,38.90
2022-11-20T00:42:35.980Z,41.80
2022-11-20T00:45:03.758Z,38.63
2022-11-20T00:47:31.540Z,42.85
2022-11-20T00:49:59.227Z,44.08
2022-11-20T00:54:55.819Z,43.38
2022-11-20T00:57:23.526Z,46.58
2022-11-20T01:02:18.685Z,42.90
2022-11-20T01:07:16.657Z,43.75
2022-11-20T01:09:44.445Z,40.50
2022-11-20T01:14:41.083Z,49.20
2022-11-20T01:17:08.792Z,53.42
2022-11-20T01:22:04.211Z,53.15
2022-11-20T01:24:31.942Z,59.83
2022-11-20T01:29:27.233Z,54.92
2022-11-20T01:34:24.223Z,59.05
2022-11-20T01:36:52.399Z,57.28
2022-11-20T01:39:21.643Z,50.75
2022-11-20T01:42:10.206Z,51.03
2022-11-20T01:44:47.881Z,49.83
2022-11-20T01:47:16.553Z,62.47
2022-11-20T01:49:48.550Z,62.08
2022-11-20T01:52:18.129Z,61.60
2022-11-20T01:54:48.711Z,62.95
2022-11-20T01:57:17.495Z,60.60
2022-11-20T01:59:47.061Z,63.13
2022-11-20T02:02:19.568Z,60.53
2022-11-20T02:04:49.203Z,69.25
2022-11-20T02:07:17.351Z,64.30
2022-11-20T02:09:45.448Z,61.90
2022-11-20T02:12:33.465Z,61.63
2022-11-20T02:15:00.452Z,60.13
2022-11-20T02:17:28.209Z,62.37
2022-11-20T02:19:57.356Z,65.85
2022-11-20T02:22:27.113Z,63.20
2022-11-20T02:24:56.233Z,68.88
2022-11-20T02:27:23.903Z,59.22
2022-11-20T02:32:22.828Z,66.93
2022-11-20T02:34:50.553Z,63.47
2022-11-20T02:39:46.376Z,60.75
2022-11-20T02:42:15.523Z,58.10
2022-11-20T02:44:43.405Z,64.00
2022-11-20T02:47:11.464Z,63.58
2022-11-20T02:49:39.214Z,61.47
2022-11-20T02:54:34.517Z,57.95
2022-11-20T02:59:31.144Z,59.75
2022-11-20T03:01:58.860Z,54.42
2022-11-20T03:06:54.176Z,54.83
2022-11-20T03:09:22.176Z,50.17
2022-11-20T03:11:50.040Z,64.95
2022-11-20T03:16:46.681Z,58.88
2022-11-20T03:19:14.694Z,53.63
2022-11-20T03:21:42.388Z,59.00
2022-11-20T03:26:37.738Z,57.15
2022-11-20T03:29:06.479Z,50.15
2022-11-20T03:31:35.449Z,50.30
2022-11-20T03:34:04.772Z,49.45
2022-11-20T03:36:32.991Z,48.65
2022-11-20T03:39:01.105Z,52.40
2022-11-20T03:41:29.761Z,52.03
2022-11-20T03:43:58.603Z,49.70
2022-11-20T03:46:26.395Z,45.45
2022-11-20T03:48:54.389Z,47.47
2022-11-20T03:51:24.178Z,43.47
2022-11-20T03:53:52.948Z,48.30
2022-11-20T03:56:21.343Z,46.95
2022-11-20T03:58:49.139Z,47.75
2022-11-20T04:01:17.924Z,53.78
2022-11-20T04:03:46.230Z,46.17
2022-11-20T04:06:15.445Z,48.00
2022-11-20T04:08:46.612Z,52.40
2022-11-20T04:11:17.093Z,47.20
2022-11-20T04:13:47.576Z,52.00
2022-11-20T04:16:15.507Z,53.13
2022-11-20T04:18:44.280Z,51.00
2022-11-20T04:21:12.433Z,54.70
2022-11-20T04:23:40.543Z,51.75
2022-11-20T04:26:10.858Z,55.55
2022-11-20T04:28:38.843Z,56.08
2022-11-20T04:31:07.269Z,53.63
2022-11-20T04:33:35.378Z,53.58
2022-11-20T04:36:07.203Z,52.63
2022-11-20T04:38:35.029Z,52.83
2022-11-20T04:41:03.492Z,50.20
2022-11-20T04:43:33.416Z,47.15
2022-11-20T04:46:01.752Z,51.83
2022-11-20T04:48:29.977Z,54.78
2022-11-20T04:50:58.492Z,56.53
2022-11-20T04:53:26.313Z,53.08
2022-11-20T04:55:54.005Z,54.45
2022-11-20T05:00:52.745Z,61.13
2022-11-20T05:03:20.502Z,63.45
2022-11-20T05:08:15.742Z,57.40
2022-11-20T05:10:44.151Z,55.53
2022-11-20T05:13:11.915Z,55.20
2022-11-20T05:15:39.648Z,50.42
2022-11-20T05:18:08.838Z,53.53
2022-11-20T05:20:37.259Z,51.85
2022-11-20T05:23:04.984Z,53.58
2022-11-20T05:28:00.259Z,54.88
2022-11-20T05:32:55.579Z,54.58
2022-11-20T05:35:24.685Z,52.25
2022-11-20T05:37:52.457Z,51.15
2022-11-20T05:40:20.129Z,54.05
2022-11-20T05:45:15.642Z,49.53
2022-11-20T05:47:43.385Z,49.92
2022-11-20T05:50:11.242Z,52.83
2022-11-20T05:52:40.369Z,49.30
2022-11-20T05:55:08.560Z,46.05
2022-11-20T05:57:36.357Z,51.10
2022-11-20T06:00:04.941Z,49.63
2022-11-20T06:02:32.810Z,45.00
2022-11-20T06:05:00.566Z,44.30
2022-11-20T06:09:57.217Z,46.10
2022-11-20T06:12:24.988Z,43.33
2022-11-20T06:14:52.749Z,43.13
2022-11-20T06:19:48.432Z,47.33
2022-11-20T06:22:16.347Z,38.58
2022-11-20T06:24:44.107Z,43.95
2022-11-20T06:29:40.849Z,42.90
2022-11-20T06:32:08.602Z,41.92
2022-11-20T06:37:03.860Z,42.80
2022-11-20T06:41:59.528Z,42.05
2022-11-20T06:44:27.361Z,44.45
2022-11-20T06:46:56.596Z,44.63
2022-11-20T06:49:24.592Z,42.33
2022-11-20T06:51:52.725Z,42.80
2022-11-20T06:54:20.526Z,42.88
2022-11-20T06:56:48.782Z,44.65
2022-11-20T06:59:16.707Z,42.47
2022-11-20T07:01:44.439Z,39.90
2022-11-20T07:06:41.126Z,40.45
2022-11-20T07:09:12.763Z,39.92
2022-11-20T07:11:40.746Z,39.22
2022-11-20T07:16:36.178Z,42.13
2022-11-20T07:19:03.923Z,38.63
